createdAt,value
2023-02-06T00:02:24.698Z,89.42
2023-02-06T00:07:18.062Z,88.99
2023-02-06T00:12:14.002Z,88.54
2023-02-06T00:17:07.347Z,88.72
2023-02-06T00:22:00.561Z,88.25
2023-02-06T00:26:56.534Z,88.33
2023-02-06T00:31:52.124Z,88.01
2023-02-06T00:36:45.312Z,87.88
2023-02-06T00:41:38.693Z,87.93
2023-02-06T00:46:32.833Z,88.48
2023-02-06T00:51:27.924Z,88.25
2023-02-06T00:56:21.108Z,88.34
2023-02-06T01:01:14.274Z,88.42
2023-02-06T01:06:07.557Z,88.33
2023-02-06T01:11:02.189Z,88.31
2023-02-06T01:15:55.431Z,88.67
2023-02-06T01:20:48.729Z,88.61
2023-02-06T01:25:41.845Z,88.21
2023-02-06T01:30:36.701Z,87.94
2023-02-06T01:35:30.075Z,88.27
2023-02-06T01:40:23.354Z,88.38
2023-02-06T01:45:45.769Z,88.83
2023-02-06T01:50:42.959Z,88.43
2023-02-06T01:55:39.133Z,88.26
2023-02-06T02:00:32.435Z,88.17
2023-02-06T02:05:27.101Z,88.31
2023-02-06T02:10:20.600Z,88.53
2023-02-06T02:15:14.489Z,88.40
2023-02-06T02:20:45.552Z,88.30
2023-02-06T02:26:26.596Z,88.37
2023-02-06T02:32:06.514Z,88.28
2023-02-06T02:37:11.678Z,88.41
2023-02-06T02:42:12.795Z,88.31
2023-02-06T02:47:09.412Z,87.99
2023-02-06T02:52:04.869Z,88.21
2023-02-06T02:57:05.245Z,88.94
2023-02-06T03:02:01.969Z,88.56
2023-02-06T03:07:18.942Z,88.54
2023-02-06T03:12:19.025Z,88.05
2023-02-06T03:17:19.686Z,87.45
2023-02-06T03:22:16.116Z,87.14
2023-02-06T03:27:12.440Z,87.25
2023-02-06T03:32:08.848Z,87.14
2023-02-06T03:37:02.678Z,86.40
2023-02-06T03:42:01.191Z,86.38
2023-02-06T03:46:57.227Z,85.92
2023-02-06T03:51:57.059Z,85.54
2023-02-06T03:57:07.428Z,85.02
2023-02-06T04:02:04.164Z,83.51
2023-02-06T04:06:58.235Z,83.10
2023-02-06T04:11:51.586Z,82.20
2023-02-06T04:16:46.285Z,81.96
2023-02-06T04:21:39.850Z,81.64
2023-02-06T04:26:33.121Z,81.47
2023-02-06T04:31:26.265Z,81.27
2023-02-06T04:36:20.945Z,81.06
2023-02-06T04:41:14.285Z,80.49
2023-02-06T04:46:07.486Z,79.91
2023-02-06T04:51:00.792Z,80.24
2023-02-06T04:55:58.542Z,79.66
2023-02-06T05:00:51.758Z,79.45
2023-02-06T05:05:44.885Z,79.76
2023-02-06T05:10:38.106Z,78.60
2023-02-06T05:15:32.661Z,78.57
2023-02-06T05:20:25.853Z,78.44
2023-02-06T05:25:19.319Z,78.68
2023-02-06T05:30:15.345Z,77.95
2023-02-06T05:35:10.623Z,77.29
2023-02-06T05:40:03.936Z,76.31
2023-02-06T05:44:57.118Z,75.63
2023-02-06T05:49:50.584Z,75.71
2023-02-06T05:54:45.910Z,74.95
2023-02-06T05:59:39.359Z,74.77
2023-02-06T06:04:32.668Z,75.94
2023-02-06T06:09:26.096Z,76.26
2023-02-06T06:14:20.819Z,75.45
2023-02-06T06:19:14.139Z,75.14
2023-02-06T06:24:08.131Z,74.23
2023-02-06T06:29:01.551Z,74.83
2023-02-06T06:33:56.230Z,75.08
2023-02-06T06:38:49.710Z,75.68
2023-02-06T06:43:45.505Z,76.40
2023-02-06T06:48:38.981Z,76.53
2023-02-06T06:53:33.992Z,76.81
2023-02-06T06:58:27.590Z,77.00
2023-02-06T07:03:20.953Z,76.96
2023-02-06T07:08:14.591Z,76.48
2023-02-06T07:13:09.526Z,75.93
2023-02-06T07:18:02.926Z,75.84
2023-02-06T07:22:56.278Z,76.06
2023-02-06T07:27:49.635Z,75.73
2023-02-06T07:32:44.194Z,75.99
2023-02-06T07:37:37.429Z,76.10
2023-02-06T07:42:30.852Z,75.96
2023-02-06T07:47:30.927Z,76.58
2023-02-06T07:52:25.588Z,76.74
2023-02-06T07:57:19.139Z,76.38
2023-02-06T08:02:13.272Z,77.30
2023-02-06T08:07:11.056Z,77.53
2023-02-06T08:12:05.870Z,77.74
2023-02-06T08:17:00.308Z,78.05
2023-02-06T08:21:53.589Z,78.44
2023-02-06T08:26:46.832Z,78.51
2023-02-06T08:31:43.270Z,78.18
2023-02-06T08:36:36.717Z,78.65
2023-02-06T08:41:32.308Z,78.98
2023-02-06T08:46:28.903Z,79.32
2023-02-06T08:51:28.030Z,79.29
2023-02-06T08:56:21.469Z,76.75
2023-02-06T09:01:16.826Z,76.58
2023-02-06T09:06:11.096Z,73.15
2023-02-06T09:11:17.687Z,72.07
2023-02-06T09:16:13.202Z,71.18
2023-02-06T09:21:10.247Z,70.58
2023-02-06T09:26:03.711Z,70.13
2023-02-06T09:30:58.887Z,69.07
2023-02-06T09:36:04.333Z,67.42
2023-02-06T09:40:58.438Z,66.50
2023-02-06T09:45:58.861Z,66.21
2023-02-06T09:51:00.707Z,64.98
2023-02-06T09:55:59.599Z,67.20
2023-02-06T10:00:59.176Z,70.79
2023-02-06T10:06:03.805Z,74.25
2023-02-06T10:10:59.745Z,77.32
2023-02-06T10:15:57.258Z,78.86
2023-02-06T10:20:55.908Z,79.15
2023-02-06T10:25:54.729Z,79.10
2023-02-06T10:31:05.980Z,77.58
2023-02-06T10:36:09.066Z,76.84
2023-02-06T10:41:07.677Z,77.47
2023-02-06T10:46:13.085Z,77.78
2023-02-06T10:51:18.976Z,76.96
2023-02-06T10:56:15.301Z,77.70
2023-02-06T11:01:25.140Z,76.60
2023-02-06T11:06:23.846Z,75.52
2023-02-06T11:11:24.208Z,73.97
2023-02-06T11:16:23.917Z,74.26
2023-02-06T11:21:37.917Z,74.48
2023-02-06T11:26:33.820Z,73.78
2023-02-06T11:31:42.865Z,69.86
2023-02-06T11:36:39.406Z,68.85
2023-02-06T11:41:34.754Z,67.76
2023-02-06T11:46:29.649Z,67.23
2023-02-06T11:51:24.076Z,65.97
2023-02-06T11:56:20.809Z,65.97
2023-02-06T12:01:21.373Z,65.15
2023-02-06T12:06:18.807Z,63.66
2023-02-06T12:11:17.819Z,62.95
2023-02-06T12:16:17.590Z,62.18
2023-02-06T12:21:17.476Z,61.88
2023-02-06T12:26:15.324Z,61.53
2023-02-06T12:31:15.306Z,61.40
2023-02-06T12:36:17.137Z,61.50
2023-02-06T12:41:44.243Z,61.03
2023-02-06T12:46:38.006Z,62.04
2023-02-06T12:51:37.453Z,63.58
2023-02-06T12:56:36.923Z,63.53
2023-02-06T13:01:43.846Z,64.31
2023-02-06T13:06:47.525Z,65.17
2023-02-06T13:11:42.768Z,66.15
2023-02-06T13:16:46.379Z,66.20
2023-02-06T13:21:41.230Z,65.41
2023-02-06T13:27:11.987Z,66.20
2023-02-06T13:32:41.150Z,67.66
2023-02-06T13:37:37.915Z,67.82
2023-02-06T13:42:40.484Z,67.57
2023-02-06T13:48:05.379Z,68.88
2023-02-06T13:53:18.248Z,70.00
2023-02-06T13:58:36.548Z,71.18
2023-02-06T14:03:32.793Z,71.81
2023-02-06T14:08:39.314Z,71.70
2023-02-06T14:13:44.414Z,71.50
2023-02-06T14:18:47.969Z,68.87
2023-02-06T14:23:59.185Z,67.32
2023-02-06T14:29:02.865Z,67.35
2023-02-06T14:34:08.182Z,67.20
2023-02-06T14:39:31.182Z,68.18
2023-02-06T14:44:31.782Z,68.60
2023-02-06T14:49:35.253Z,68.62
2023-02-06T14:54:32.912Z,67.12
2023-02-06T14:59:26.468Z,67.19
2023-02-06T15:04:23.127Z,66.85
2023-02-06T15:09:32.529Z,66.80
2023-02-06T15:14:27.719Z,66.49
2023-02-06T15:19:24.255Z,66.75
2023-02-06T15:24:49.878Z,66.46
2023-02-06T15:29:51.092Z,70.13
2023-02-06T15:34:47.771Z,74.37
2023-02-06T15:39:41.189Z,76.83
2023-02-06T15:44:38.579Z,78.90
2023-02-06T15:49:37.822Z,80.27
2023-02-06T15:54:31.970Z,81.34
2023-02-06T15:59:27.105Z,82.52
2023-02-06T16:04:24.519Z,83.16
2023-02-06T16:09:22.142Z,83.56
2023-02-06T16:14:21.600Z,84.57
2023-02-06T16:19:38.626Z,85.40
2023-02-06T16:24:32.020Z,85.47
2023-02-06T16:29:28.158Z,86.06
2023-02-06T16:34:23.618Z,86.70
2023-02-06T16:39:18.389Z,87.01
2023-02-06T16:44:16.353Z,87.66
2023-02-06T16:49:17.291Z,87.86
2023-02-06T16:54:19.984Z,87.87
2023-02-06T16:59:14.791Z,88.06
2023-02-06T17:04:08.378Z,88.14
2023-02-06T17:09:07.752Z,88.47
2023-02-06T17:14:01.440Z,88.85
2023-02-06T17:18:58.419Z,89.27
2023-02-06T17:23:52.748Z,89.18
2023-02-06T17:28:50.026Z,89.41
2023-02-06T17:33:43.496Z,89.30
2023-02-06T17:38:38.433Z,89.51
2023-02-06T17:43:34.606Z,89.47
2023-02-06T17:48:29.935Z,89.61
2023-02-06T17:53:23.793Z,89.52
2023-02-06T17:58:22.807Z,89.61
2023-02-06T18:03:18.439Z,89.37
2023-02-06T18:08:12.525Z,89.14
2023-02-06T18:13:06.094Z,89.61
2023-02-06T18:18:01.878Z,88.94
2023-02-06T18:22:55.806Z,89.49
2023-02-06T18:27:49.318Z,89.23
2023-02-06T18:32:42.980Z,89.37
2023-02-06T18:37:40.208Z,88.93
2023-02-06T18:42:51.028Z,88.73
2023-02-06T18:47:46.938Z,88.69
2023-02-06T18:52:41.922Z,88.54
2023-02-06T18:57:36.387Z,88.80
2023-02-06T19:02:30.000Z,88.43
2023-02-06T19:07:23.479Z,89.14
2023-02-06T19:12:18.394Z,88.99
2023-02-06T19:17:11.771Z,89.11
2023-02-06T19:22:14.608Z,89.17
2023-02-06T19:27:10.224Z,89.18
2023-02-06T19:32:06.787Z,88.90
2023-02-06T19:37:00.231Z,89.38
2023-02-06T19:41:53.683Z,89.11
2023-02-06T19:46:46.919Z,89.04
2023-02-06T19:51:44.876Z,88.77
2023-02-06T19:56:40.103Z,88.55
2023-02-06T20:01:43.308Z,88.26
2023-02-06T20:06:36.747Z,88.24
2023-02-06T20:11:33.103Z,88.05
2023-02-06T20:16:28.392Z,88.16
2023-02-06T20:21:26.783Z,88.14
2023-02-06T20:26:21.508Z,88.70
2023-02-06T20:31:17.051Z,88.39
2023-02-06T20:36:16.278Z,88.62
2023-02-06T20:41:11.620Z,88.22
2023-02-06T20:46:07.321Z,88.12
2023-02-06T20:51:03.581Z,88.38
2023-02-06T20:55:57.408Z,88.54
2023-02-06T21:00:50.840Z,88.54
2023-02-06T21:05:44.384Z,88.79
2023-02-06T21:10:39.404Z,89.03
2023-02-06T21:15:33.497Z,89.07
2023-02-06T21:20:26.868Z,88.81
2023-02-06T21:25:21.662Z,88.35
2023-02-06T21:30:16.648Z,87.80
2023-02-06T21:35:12.251Z,87.58
2023-02-06T21:40:10.367Z,87.77
2023-02-06T21:45:04.164Z,88.08
2023-02-06T21:49:59.635Z,88.55
2023-02-06T21:54:52.937Z,88.82
2023-02-06T21:59:46.319Z,89.09
2023-02-06T22:04:40.658Z,89.65
2023-02-06T22:09:35.406Z,90.11
2023-02-06T22:14:29.049Z,90.62
2023-02-06T22:19:22.470Z,90.65
2023-02-06T22:24:16.245Z,90.80
2023-02-06T22:29:17.162Z,90.92
2023-02-06T22:34:15.160Z,91.63
2023-02-06T22:39:12.613Z,91.93
2023-02-06T22:44:06.404Z,91.99
2023-02-06T22:49:05.527Z,91.48
2023-02-06T22:53:59.539Z,91.57
2023-02-06T22:58:53.151Z,91.47
2023-02-06T23:03:46.375Z,91.36
2023-02-06T23:08:42.164Z,91.33
2023-02-06T23:13:35.898Z,90.96
2023-02-06T23:18:29.804Z,91.25
2023-02-06T23:23:23.414Z,91.49
2023-02-06T23:28:18.108Z,91.31
2023-02-06T23:33:11.709Z,91.56
2023-02-06T23:38:05.648Z,91.49
2023-02-06T23:42:59.351Z,91.10
2023-02-06T23:47:55.102Z,90.88
2023-02-06T23:52:48.747Z,90.83
2023-02-06T23:57:42.848Z,90.48
